Time;durP1;ratioP1;P1;durP2;ratioP2;P2;SDS_P1;SDS_P2;PMS_P1;PMS_P2;Temp;Humidity;BMP_temperature;BMP_pressure;BME280_temperature;BME280_humidity;BME280_pressure;Samples;Min_cycle;Max_cycle;Signal;HPM_P1;HPM_P2
2023/07/29 00:02:22;;;;;;;2.70;2.33;;;;;;;;;;5155783;27;20395;-63
2023/07/29 00:04:48;;;;;;;5.80;2.72;;;;;;;;;;5155023;27;20197;-63
2023/07/29 00:07:14;;;;;;;3.80;2.47;;;;;;;;;;5152368;27;20449;-63
2023/07/29 00:09:41;;;;;;;2.70;2.53;;;;;;;;;;5152440;27;20201;-63
2023/07/29 00:12:08;;;;;;;2.30;2.20;;;;;;;;;;5155249;27;20193;-63
2023/07/29 00:14:35;;;;;;;2.72;1.98;;;;;;;;;;5155630;27;20513;-63
2023/07/29 00:17:01;;;;;;;2.30;2.20;;;;;;;;;;5153592;27;20220;-63
2023/07/29 00:19:28;;;;;;;3.20;2.88;;;;;;;;;;5152529;27;20201;-62
2023/07/29 00:21:54;;;;;;;2.55;2.38;;;;;;;;;;5153563;27;20224;-63
2023/07/29 00:24:20;;;;;;;3.30;2.38;;;;;;;;;;5155528;27;20209;-63
2023/07/29 00:26:47;;;;;;;2.15;2.05;;;;;;;;;;5155082;27;20224;-62
2023/07/29 00:29:14;;;;;;;2.38;2.28;;;;;;;;;;5151928;27;20198;-63
2023/07/29 00:31:41;;;;;;;2.45;2.35;;;;;;;;;;5151845;27;20214;-62
2023/07/29 00:34:07;;;;;;;4.72;3.33;;;;;;;;;;5154764;27;20200;-63
2023/07/29 00:36:33;;;;;;;3.30;3.00;;;;;;;;;;5155482;27;20216;-63
2023/07/29 00:38:59;;;;;;;5.15;2.70;;;;;;;;;;5153390;27;20197;-63
2023/07/29 00:41:26;;;;;;;4.50;2.58;;;;;;;;;;5151908;27;20199;-63
2023/07/29 00:43:53;;;;;;;3.00;2.80;;;;;;;;;;5152560;27;20532;-63
2023/07/29 00:46:20;;;;;;;2.75;2.50;;;;;;;;;;5155513;27;20220;-63
2023/07/29 00:48:47;;;;;;;2.80;2.60;;;;;;;;;;5155210;27;20434;-63
2023/07/29 00:51:13;;;;;;;3.97;2.58;;;;;;;;;;5151767;27;20195;-63
2023/07/29 00:53:39;;;;;;;3.25;2.38;;;;;;;;;;5151588;27;20198;-63
2023/07/29 00:56:06;;;;;;;2.38;2.25;;;;;;;;;;5154306;27;20194;-63
2023/07/29 00:58:32;;;;;;;3.22;2.65;;;;;;;;;;5155050;27;20201;-63
2023/07/29 01:00:58;;;;;;;2.58;2.30;;;;;;;;;;5153453;27;20202;-63
2023/07/29 01:03:26;;;;;;;2.50;2.30;;;;;;;;;;5151333;27;20195;-63
2023/07/29 01:05:57;;;;;;;2.55;2.05;;;;;;;;;;5152322;27;20221;-63
2023/07/29 01:08:28;;;;;;;2.83;2.60;;;;;;;;;;5155160;27;20411;-63
2023/07/29 01:10:59;;;;;;;6.40;2.00;;;;;;;;;;5153465;27;20465;-63
2023/07/29 01:13:29;;;;;;;4.35;2.47;;;;;;;;;;5151418;27;20201;-62
2023/07/29 01:15:56;;;;;;;6.30;1.98;;;;;;;;;;5152583;27;20209;-63
2023/07/29 01:18:24;;;;;;;2.72;2.40;;;;;;;;;;5155085;27;20194;-63
2023/07/29 01:20:53;;;;;;;2.65;2.10;;;;;;;;;;5154397;27;20231;-63
2023/07/29 01:23:24;;;;;;;5.25;2.15;;;;;;;;;;5151218;27;20199;-63
2023/07/29 01:25:51;;;;;;;5.40;2.10;;;;;;;;;;5151907;27;20202;-63
2023/07/29 01:28:17;;;;;;;2.60;2.13;;;;;;;;;;5155023;27;20228;-63
2023/07/29 01:30:44;;;;;;;3.33;2.00;;;;;;;;;;5154939;27;20205;-63
2023/07/29 01:33:14;;;;;;;2.67;2.50;;;;;;;;;;5151369;27;20194;-63
2023/07/29 01:35:42;;;;;;;4.35;2.17;;;;;;;;;;5151375;27;20203;-63
2023/07/29 01:38:11;;;;;;;2.70;2.50;;;;;;;;;;5154406;27;20389;-63
2023/07/29 01:40:39;;;;;;;3.30;2.50;;;;;;;;;;5154826;27;20205;-63
2023/07/29 01:43:07;;;;;;;2.55;2.28;;;;;;;;;;5152211;27;20228;-63
2023/07/29 01:45:37;;;;;;;4.93;2.70;;;;;;;;;;5151267;27;20199;-63
2023/07/29 01:48:04;;;;;;;2.72;2.47;;;;;;;;;;5153017;27;20221;-63
2023/07/29 01:50:31;;;;;;;4.75;2.45;;;;;;;;;;5154602;27;20194;-63
2023/07/29 01:52:58;;;;;;;2.55;2.33;;;;;;;;;;5153332;27;20197;-63
2023/07/29 01:55:24;;;;;;;2.58;2.47;;;;;;;;;;5151232;27;20369;-63
2023/07/29 01:57:52;;;;;;;2.42;2.30;;;;;;;;;;5151256;27;20199;-63
2023/07/29 02:00:18;;;;;;;2.53;2.40;;;;;;;;;;5154660;27;20213;-63
2023/07/29 02:02:45;;;;;;;3.83;2.40;;;;;;;;;;5154317;27;20198;-63
2023/07/29 02:05:11;;;;;;;2.38;2.25;;;;;;;;;;5151711;27;20203;-63
2023/07/29 02:07:37;;;;;;;2.70;2.50;;;;;;;;;;5151345;27;20218;-63
2023/07/29 02:10:04;;;;;;;2.10;2.00;;;;;;;;;;5155763;27;20446;-63
2023/07/29 02:12:30;;;;;;;2.47;2.28;;;;;;;;;;5157949;27;20201;-63
2023/07/29 02:14:58;;;;;;;2.25;2.05;;;;;;;;;;5157364;27;20197;-63
2023/07/29 02:17:25;;;;;;;2.45;2.30;;;;;;;;;;5154524;27;20205;-63
2023/07/29 02:19:51;;;;;;;2.25;2.15;;;;;;;;;;5154858;27;20222;-63
2023/07/29 02:22:18;;;;;;;2.10;2.00;;;;;;;;;;5154264;27;20502;-63
2023/07/29 02:24:44;;;;;;;3.25;2.20;;;;;;;;;;5154538;27;20198;-63
2023/07/29 02:27:11;;;;;;;2.00;1.90;;;;;;;;;;5156830;27;20229;-62
2023/07/29 02:29:37;;;;;;;2.22;2.03;;;;;;;;;;5157920;27;20235;-62
2023/07/29 02:32:05;;;;;;;2.50;2.25;;;;;;;;;;5155855;27;20205;-63
2023/07/29 02:34:31;;;;;;;2.15;2.05;;;;;;;;;;5154394;27;20269;-63
2023/07/29 02:36:57;;;;;;;2.85;2.10;;;;;;;;;;5155077;27;20195;-63
2023/07/29 02:39:24;;;;;;;2.63;2.00;;;;;;;;;;5157566;27;20205;-63
2023/07/29 02:41:50;;;;;;;2.80;1.90;;;;;;;;;;5157717;27;20219;-63
2023/07/29 02:44:16;;;;;;;4.38;2.35;;;;;;;;;;5153938;27;20229;-63
2023/07/29 02:46:43;;;;;;;4.93;2.35;;;;;;;;;;5153821;27;20222;-63
2023/07/29 02:49:10;;;;;;;2.53;2.40;;;;;;;;;;5156405;27;20228;-63
2023/07/29 02:51:37;;;;;;;2.53;2.35;;;;;;;;;;5156954;27;20556;-63
2023/07/29 02:54:03;;;;;;;4.15;2.65;;;;;;;;;;5155104;27;20417;-63
2023/07/29 02:56:30;;;;;;;3.30;2.10;;;;;;;;;;5153759;27;20370;-63
2023/07/29 02:58:56;;;;;;;2.25;2.13;;;;;;;;;;5153403;27;20198;-63
2023/07/29 03:01:24;;;;;;;3.10;2.17;;;;;;;;;;5156677;27;20492;-63
2023/07/29 03:03:51;;;;;;;3.25;2.10;;;;;;;;;;5156596;27;20198;-63
2023/07/29 03:06:18;;;;;;;3.35;2.10;;;;;;;;;;5152940;27;20201;-63
2023/07/29 03:08:45;;;;;;;5.10;2.30;;;;;;;;;;5152997;27;20506;-63
2023/07/29 03:11:14;;;;;;;2.00;1.88;;;;;;;;;;5155158;27;20205;-62
2023/07/29 03:13:40;;;;;;;3.13;2.47;;;;;;;;;;5156763;27;20198;-63
2023/07/29 03:16:07;;;;;;;8.85;2.30;;;;;;;;;;5155045;27;20268;-63
2023/07/29 03:18:33;;;;;;;3.60;2.40;;;;;;;;;;5153515;27;20194;-63
2023/07/29 03:21:00;;;;;;;2.50;2.30;;;;;;;;;;5152833;27;20212;-63
2023/07/29 03:23:28;;;;;;;2.55;2.35;;;;;;;;;;5156709;27;20200;-63
2023/07/29 03:25:56;;;;;;;2.25;2.15;;;;;;;;;;5156696;27;20501;-63
2023/07/29 03:28:22;;;;;;;1.95;1.95;;;;;;;;;;5145136;27;20224;-63
2023/07/29 03:30:49;;;;;;;2.15;1.95;;;;;;;;;;5153425;27;20214;-63
2023/07/29 03:33:15;;;;;;;2.10;2.00;;;;;;;;;;5155558;27;20206;-63
2023/07/29 03:35:44;;;;;;;3.60;2.00;;;;;;;;;;5156902;27;20202;-63
2023/07/29 03:38:10;;;;;;;4.35;1.90;;;;;;;;;;5154425;27;20194;-63
2023/07/29 03:40:38;;;;;;;3.28;2.08;;;;;;;;;;5152956;27;20247;-63
2023/07/29 03:43:04;;;;;;;3.85;2.00;;;;;;;;;;5154325;27;20199;-63
2023/07/29 03:45:31;;;;;;;2.50;2.30;;;;;;;;;;5156589;27;20194;-63
2023/07/29 03:47:57;;;;;;;2.10;2.00;;;;;;;;;;5156008;27;20217;-63
2023/07/29 03:50:24;;;;;;;3.58;2.10;;;;;;;;;;5153071;27;20194;-63
2023/07/29 03:52:50;;;;;;;4.90;2.38;;;;;;;;;;5152568;27;20206;-63
2023/07/29 03:55:16;;;;;;;2.20;2.10;;;;;;;;;;5155259;27;20212;-63
2023/07/29 03:57:44;;;;;;;4.25;2.40;;;;;;;;;;5156256;27;20505;-63
2023/07/29 04:00:10;;;;;;;3.22;2.25;;;;;;;;;;5154041;27;20209;-63
2023/07/29 04:02:37;;;;;;;4.13;2.30;;;;;;;;;;5152320;27;20199;-63
2023/07/29 04:05:04;;;;;;;7.05;2.20;;;;;;;;;;5153264;27;20491;-63
2023/07/29 04:07:30;;;;;;;2.35;2.25;;;;;;;;;;5155912;27;20213;-63
2023/07/29 04:09:56;;;;;;;1.90;1.80;;;;;;;;;;5155897;27;20201;-63
2023/07/29 04:12:23;;;;;;;2.17;1.90;;;;;;;;;;5143830;27;20378;-63
2023/07/29 04:14:50;;;;;;;2.28;2.17;;;;;;;;;;5152455;27;20202;-63
2023/07/29 04:17:16;;;;;;;3.90;2.00;;;;;;;;;;5154823;27;20201;-63
2023/07/29 04:19:43;;;;;;;2.08;1.92;;;;;;;;;;5155729;27;20201;-63
2023/07/29 04:22:09;;;;;;;3.97;2.13;;;;;;;;;;5153791;27;20197;-62
2023/07/29 04:24:35;;;;;;;2.83;2.03;;;;;;;;;;5152131;27;20202;-62
2023/07/29 04:27:02;;;;;;;6.85;1.98;;;;;;;;;;5152544;27;20526;-62
2023/07/29 04:29:28;;;;;;;2.78;1.92;;;;;;;;;;5155575;27;20201;-62
2023/07/29 04:31:55;;;;;;;2.20;2.00;;;;;;;;;;5155241;27;20527;-62
2023/07/29 04:34:22;;;;;;;1.98;1.88;;;;;;;;;;5151922;27;20209;-62
2023/07/29 04:36:48;;;;;;;2.83;2.00;;;;;;;;;;5151877;27;20198;-62
2023/07/29 04:39:15;;;;;;;2.17;1.90;;;;;;;;;;5154284;27;20502;-62
2023/07/29 04:41:41;;;;;;;2.10;2.00;;;;;;;;;;5155492;27;20205;-62
2023/07/29 04:44:07;;;;;;;2.20;2.00;;;;;;;;;;5153993;27;20374;-62
2023/07/29 04:46:34;;;;;;;2.22;2.13;;;;;;;;;;5151804;27;20199;-62
2023/07/29 04:49:02;;;;;;;4.38;2.17;;;;;;;;;;5151632;27;20218;-62
2023/07/29 04:51:28;;;;;;;4.60;2.17;;;;;;;;;;5155151;27;20193;-62
2023/07/29 04:53:54;;;;;;;8.95;2.97;;;;;;;;;;5155473;27;20220;-62
2023/07/29 04:56:21;;;;;;;4.07;2.88;;;;;;;;;;5152254;27;20201;-62
2023/07/29 04:58:47;;;;;;;3.53;2.55;;;;;;;;;;5151768;27;20370;-62
2023/07/29 05:01:14;;;;;;;5.13;2.00;;;;;;;;;;5153531;27;20405;-62
2023/07/29 05:03:40;;;;;;;2.65;2.35;;;;;;;;;;5155037;27;20198;-63
2023/07/29 05:06:08;;;;;;;2.58;2.40;;;;;;;;;;5154036;27;20234;-63
2023/07/29 05:08:34;;;;;;;3.45;2.67;;;;;;;;;;5151681;27;20225;-63
2023/07/29 05:11:00;;;;;;;2.40;2.20;;;;;;;;;;5151674;27;20198;-62
2023/07/29 05:13:27;;;;;;;5.22;2.47;;;;;;;;;;5155045;27;20194;-62
2023/07/29 05:15:53;;;;;;;2.35;2.10;;;;;;;;;;5155125;27;20532;-62
2023/07/29 05:18:19;;;;;;;2.67;2.50;;;;;;;;;;5152367;27;20389;-62
2023/07/29 05:20:46;;;;;;;4.03;2.40;;;;;;;;;;5151510;27;20198;-62
2023/07/29 05:23:13;;;;;;;6.97;3.08;;;;;;;;;;5152842;27;20197;-62
2023/07/29 05:25:40;;;;;;;2.35;2.25;;;;;;;;;;5155283;27;20205;-62
2023/07/29 05:28:06;;;;;;;2.88;2.50;;;;;;;;;;5154150;27;20229;-62
2023/07/29 05:30:33;;;;;;;3.72;2.53;;;;;;;;;;5151271;27;20224;-62
2023/07/29 05:33:00;;;;;;;7.57;2.67;;;;;;;;;;5151087;27;20274;-62
2023/07/29 05:35:26;;;;;;;4.35;2.70;;;;;;;;;;5154877;27;20206;-62
2023/07/29 05:37:53;;;;;;;3.00;2.78;;;;;;;;;;5154919;27;20194;-62
2023/07/29 05:40:20;;;;;;;8.98;3.17;;;;;;;;;;5152486;27;20205;-62
2023/07/29 05:42:47;;;;;;;6.53;3.00;;;;;;;;;;5151053;27;20205;-63
2023/07/29 05:45:14;;;;;;;4.22;2.78;;;;;;;;;;5156073;27;20265;-63
2023/07/29 05:47:40;;;;;;;5.43;2.95;;;;;;;;;;5158582;27;20257;-63
2023/07/29 05:50:07;;;;;;;3.75;3.00;;;;;;;;;;5158254;27;20204;-63
2023/07/29 05:52:34;;;;;;;3.20;2.90;;;;;;;;;;5155070;27;20226;-63
2023/07/29 05:55:00;;;;;;;3.30;2.88;;;;;;;;;;5155155;27;20198;-63
2023/07/29 05:57:28;;;;;;;2.95;2.70;;;;;;;;;;5158295;27;20197;-63
2023/07/29 05:59:54;;;;;;;3.47;3.08;;;;;;;;;;5158324;27;20224;-63
2023/07/29 06:02:21;;;;;;;5.18;2.92;;;;;;;;;;5155618;27;20197;-63
2023/07/29 06:04:47;;;;;;;2.45;2.35;;;;;;;;;;5154994;27;20198;-63
2023/07/29 06:07:13;;;;;;;4.68;2.35;;;;;;;;;;5156138;27;20198;-63
2023/07/29 06:09:40;;;;;;;3.67;2.70;;;;;;;;;;5158506;27;20520;-63
2023/07/29 06:12:06;;;;;;;3.00;2.40;;;;;;;;;;5157636;27;20373;-63
2023/07/29 06:14:34;;;;;;;7.68;2.30;;;;;;;;;;5154694;27;20457;-63
2023/07/29 06:17:00;;;;;;;3.72;2.53;;;;;;;;;;5154544;27;20401;-63
2023/07/29 06:19:27;;;;;;;3.88;2.90;;;;;;;;;;5157877;27;20262;-63
2023/07/29 06:21:55;;;;;;;4.75;2.90;;;;;;;;;;5158075;27;20198;-63
2023/07/29 06:24:22;;;;;;;6.25;3.20;;;;;;;;;;5148939;27;20202;-62
2023/07/29 06:26:48;;;;;;;3.30;3.10;;;;;;;;;;5158407;27;20202;-62
2023/07/29 06:29:14;;;;;;;3.22;2.92;;;;;;;;;;5156590;27;20213;-62
2023/07/29 06:31:42;;;;;;;4.05;3.05;;;;;;;;;;5154369;27;20202;-63
2023/07/29 06:34:08;;;;;;;3.05;2.95;;;;;;;;;;5154755;27;20198;-62
2023/07/29 06:36:34;;;;;;;3.22;2.60;;;;;;;;;;5158051;27;20213;-62
2023/07/29 06:39:00;;;;;;;2.42;2.13;;;;;;;;;;5157962;27;20201;-62
2023/07/29 06:41:27;;;;;;;4.25;2.25;;;;;;;;;;5154673;27;20194;-62
2023/07/29 06:43:53;;;;;;;2.45;2.35;;;;;;;;;;5154545;27;20280;-62
2023/07/29 06:46:19;;;;;;;3.13;2.17;;;;;;;;;;5156162;27;20222;-58
2023/07/29 06:48:47;;;;;;;2.70;2.50;;;;;;;;;;5157675;27;20281;-56
2023/07/29 06:51:13;;;;;;;5.28;2.33;;;;;;;;;;5156955;27;20212;-57
2023/07/29 06:53:40;;;;;;;4.38;2.35;;;;;;;;;;5154035;27;20199;-58
2023/07/29 06:56:06;;;;;;;2.20;2.10;;;;;;;;;;5153723;27;20205;-56
2023/07/29 06:58:32;;;;;;;3.42;2.35;;;;;;;;;;5145572;27;20397;-58
2023/07/29 07:00:59;;;;;;;4.70;2.15;;;;;;;;;;5154017;27;20439;-58
2023/07/29 07:03:25;;;;;;;2.65;2.13;;;;;;;;;;5156353;27;20514;-57
2023/07/29 07:05:53;;;;;;;5.18;2.25;;;;;;;;;;5157491;27;20204;-57
2023/07/29 07:08:19;;;;;;;2.63;2.45;;;;;;;;;;5155592;27;20213;-58
2023/07/29 07:10:47;;;;;;;5.28;2.42;;;;;;;;;;5153721;27;20203;-56
2023/07/29 07:13:13;;;;;;;5.25;2.80;;;;;;;;;;5154151;27;20202;-58
2023/07/29 07:15:39;;;;;;;3.55;2.38;;;;;;;;;;5157648;27;20429;-58
2023/07/29 07:18:06;;;;;;;3.45;2.60;;;;;;;;;;5157727;27;20194;-58
2023/07/29 07:20:32;;;;;;;2.55;2.35;;;;;;;;;;5153968;27;20201;-58
2023/07/29 07:23:00;;;;;;;3.42;2.40;;;;;;;;;;5153736;27;20502;-58
2023/07/29 07:25:26;;;;;;;5.53;2.35;;;;;;;;;;5156189;27;20265;-58
2023/07/29 07:27:52;;;;;;;7.43;2.08;;;;;;;;;;5157468;27;20221;-57
2023/07/29 07:30:18;;;;;;;3.38;2.08;;;;;;;;;;5155559;27;20202;-57
2023/07/29 07:32:45;;;;;;;2.50;2.30;;;;;;;;;;5153269;27;20202;-58
2023/07/29 07:35:11;;;;;;;2.30;1.90;;;;;;;;;;5153819;27;20199;-57
2023/07/29 07:37:38;;;;;;;5.28;1.88;;;;;;;;;;5157118;27;20527;-57
2023/07/29 07:40:06;;;;;;;4.65;1.75;;;;;;;;;;5156944;27;20269;-55
2023/07/29 07:42:32;;;;;;;3.47;1.95;;;;;;;;;;5153367;27;20203;-57
2023/07/29 07:44:58;;;;;;;1.95;1.27;;;;;;;;;;5154197;27;20265;-57
2023/07/29 07:47:25;;;;;;;1.15;1.00;;;;;;;;;;5155795;27;20205;-58
2023/07/29 07:49:52;;;;;;;2.08;0.88;;;;;;;;;;5156799;27;20228;-57
2023/07/29 07:58:25;;;;;;;3.45;0.70;;;;;;;;;;5131680;27;20262;-56
2023/07/29 08:00:52;;;;;;;1.25;0.70;;;;;;;;;;5151300;27;20224;-57
2023/07/29 08:03:18;;;;;;;2.35;0.70;;;;;;;;;;5149234;27;20289;-56
2023/07/29 08:05:44;;;;;;;0.60;0.60;;;;;;;;;;5159195;27;20206;-56
2023/07/29 08:08:11;;;;;;;4.78;0.70;;;;;;;;;;5146984;27;20228;-58
2023/07/29 08:10:37;;;;;;;1.92;0.65;;;;;;;;;;5159541;27;20214;-57
2023/07/29 08:13:03;;;;;;;1.08;0.90;;;;;;;;;;5159257;27;20217;-58
2023/07/29 08:15:31;;;;;;;0.88;0.75;;;;;;;;;;5159166;27;20513;-56
2023/07/29 08:17:57;;;;;;;1.00;1.00;;;;;;;;;;5150854;27;20209;-56
2023/07/29 08:20:23;;;;;;;1.73;1.38;;;;;;;;;;5159268;27;20225;-58
2023/07/29 08:22:50;;;;;;;1.25;1.10;;;;;;;;;;5159515;27;20209;-57
2023/07/29 08:25:16;;;;;;;1.50;1.40;;;;;;;;;;5159519;27;20244;-56
2023/07/29 08:27:42;;;;;;;1.67;1.45;;;;;;;;;;5159204;27;20225;-58
2023/07/29 08:30:09;;;;;;;1.63;1.52;;;;;;;;;;5150986;27;20229;-59
2023/07/29 08:32:37;;;;;;;1.48;1.48;;;;;;;;;;5158438;27;20218;-56
2023/07/29 08:35:03;;;;;;;4.85;1.80;;;;;;;;;;5158047;27;20209;-56
2023/07/29 08:37:31;;;;;;;2.35;1.65;;;;;;;;;;5157501;27;20224;-55
2023/07/29 08:39:57;;;;;;;2.00;1.60;;;;;;;;;;5158928;27;20213;-56
2023/07/29 08:42:24;;;;;;;2.00;1.85;;;;;;;;;;5158533;27;20210;-56
2023/07/29 08:44:50;;;;;;;1.80;1.70;;;;;;;;;;5159070;27;20214;-58
2023/07/29 08:47:16;;;;;;;2.30;2.10;;;;;;;;;;5158884;27;20217;-56
2023/07/29 08:49:44;;;;;;;4.55;2.33;;;;;;;;;;5158895;27;20221;-58
2023/07/29 08:52:12;;;;;;;2.33;2.22;;;;;;;;;;5154001;27;20218;-58
2023/07/29 08:54:38;;;;;;;2.03;1.92;;;;;;;;;;5158541;27;20444;-58
2023/07/29 08:57:05;;;;;;;4.70;1.95;;;;;;;;;;5158651;27;20287;-58
2023/07/29 08:59:31;;;;;;;4.60;2.40;;;;;;;;;;5158538;27;20247;-58
2023/07/29 09:01:58;;;;;;;2.28;1.83;;;;;;;;;;5158434;27;20528;-57
2023/07/29 09:04:24;;;;;;;2.97;1.95;;;;;;;;;;5158384;27;20209;-56
2023/07/29 09:06:54;;;;;;;1.88;1.80;;;;;;;;;;5158580;27;20551;-55
2023/07/29 09:09:21;;;;;;;1.90;1.77;;;;;;;;;;5158377;27;20421;-58
2023/07/29 09:11:47;;;;;;;4.18;1.83;;;;;;;;;;5158601;27;20216;-58
2023/07/29 09:14:14;;;;;;;2.22;2.10;;;;;;;;;;5158669;27;20209;-55
2023/07/29 09:16:40;;;;;;;1.15;1.15;;;;;;;;;;5159131;27;20210;-55
2023/07/29 09:19:06;;;;;;;4.88;1.90;;;;;;;;;;5161964;27;20205;-57
2023/07/29 09:24:37;;;;;;;3.78;1.67;;;;;;;;;;5153537;27;20193;-57
2023/07/29 09:27:03;;;;;;;2.05;1.42;;;;;;;;;;5150434;27;20222;-58
2023/07/29 09:29:29;;;;;;;1.98;1.40;;;;;;;;;;5152485;27;20580;-59
2023/07/29 09:32:18;;;;;;;1.85;1.48;;;;;;;;;;5153637;27;20586;-57
2023/07/29 09:34:44;;;;;;;1.55;1.55;;;;;;;;;;5142511;27;20206;-57
2023/07/29 09:37:10;;;;;;;2.25;1.70;;;;;;;;;;5150697;27;20206;-57
2023/07/29 09:39:38;;;;;;;1.60;1.50;;;;;;;;;;5153615;27;20202;-58
2023/07/29 09:42:04;;;;;;;1.40;1.40;;;;;;;;;;5154025;27;20209;-57
2023/07/29 09:44:36;;;;;;;1.52;1.42;;;;;;;;;;5151621;27;20210;-58
2023/07/29 09:47:02;;;;;;;4.55;1.40;;;;;;;;;;5150313;27;20209;-57
2023/07/29 09:49:29;;;;;;;4.00;1.15;;;;;;;;;;5151695;27;20222;-57
2023/07/29 09:51:56;;;;;;;2.20;1.58;;;;;;;;;;5147971;27;20522;-57
2023/07/29 09:54:23;;;;;;;1.45;1.45;;;;;;;;;;5150058;27;20237;-58
2023/07/29 09:56:50;;;;;;;1.30;1.23;;;;;;;;;;5153658;27;20212;-57
2023/07/29 09:59:19;;;;;;;1.10;1.10;;;;;;;;;;5153320;27;20212;-58
2023/07/29 10:01:46;;;;;;;3.97;1.40;;;;;;;;;;5141756;27;20697;-58
2023/07/29 10:04:13;;;;;;;1.33;1.33;;;;;;;;;;5149721;27;20228;-58
2023/07/29 10:06:39;;;;;;;1.00;1.00;;;;;;;;;;5152797;27;20215;-58
2023/07/29 10:09:06;;;;;;;2.40;1.23;;;;;;;;;;5153439;27;20267;-56
2023/07/29 10:11:33;;;;;;;2.05;1.58;;;;;;;;;;5151547;27;20277;-55
2023/07/29 10:14:01;;;;;;;2.08;1.42;;;;;;;;;;5149659;27;20205;-59
2023/07/29 10:16:27;;;;;;;1.42;1.40;;;;;;;;;;5151026;27;20213;-57
2023/07/29 10:18:54;;;;;;;1.17;1.08;;;;;;;;;;5152094;27;20208;-57
2023/07/29 10:21:22;;;;;;;1.42;1.42;;;;;;;;;;5152457;27;20212;-56
2023/07/29 10:23:50;;;;;;;1.42;1.42;;;;;;;;;;5149255;27;20206;-57
2023/07/29 10:26:18;;;;;;;1.58;1.48;;;;;;;;;;5149464;27;20241;-58
2023/07/29 10:28:47;;;;;;;4.10;1.80;;;;;;;;;;5140862;27;20225;-58
2023/07/29 10:31:16;;;;;;;2.63;1.88;;;;;;;;;;5148471;27;20213;-57
2023/07/29 10:33:42;;;;;;;1.85;1.70;;;;;;;;;;5152086;27;20224;-58
2023/07/29 10:36:09;;;;;;;3.13;1.58;;;;;;;;;;5152503;27;20213;-58
2023/07/29 10:38:35;;;;;;;3.03;1.40;;;;;;;;;;5150275;27;20209;-57
2023/07/29 10:41:01;;;;;;;4.72;1.30;;;;;;;;;;5149173;27;20210;-58
2023/07/29 10:43:28;;;;;;;1.88;1.38;;;;;;;;;;5150297;27;20622;-58
2023/07/29 10:45:54;;;;;;;1.52;1.42;;;;;;;;;;5152946;27;20201;-58
2023/07/29 10:48:40;;;;;;;1.50;1.40;;;;;;;;;;5152174;27;20398;-57
2023/07/29 10:51:25;;;;;;;1.40;1.30;;;;;;;;;;5148962;27;20213;-58
2023/07/29 10:53:55;;;;;;;2.30;1.30;;;;;;;;;;5141594;27;20206;-58
2023/07/29 10:56:28;;;;;;;2.15;1.23;;;;;;;;;;5149373;27;20436;-58
2023/07/29 10:58:56;;;;;;;1.45;1.40;;;;;;;;;;5152810;27;20205;-60
2023/07/29 11:01:27;;;;;;;4.53;1.55;;;;;;;;;;5152851;27;20210;-58
2023/07/29 11:04:02;;;;;;;2.28;1.95;;;;;;;;;;5149293;27;20205;-58
2023/07/29 11:06:28;;;;;;;1.50;1.40;;;;;;;;;;5149931;27;20291;-58
2023/07/29 11:08:56;;;;;;;1.23;1.20;;;;;;;;;;5152199;27;20246;-57
2023/07/29 11:11:22;;;;;;;1.67;1.67;;;;;;;;;;5152243;27;20209;-58
2023/07/29 11:13:48;;;;;;;1.40;1.40;;;;;;;;;;5148809;27;20517;-57
2023/07/29 11:16:17;;;;;;;2.15;1.30;;;;;;;;;;5148701;27;20514;-58
2023/07/29 11:18:44;;;;;;;1.85;1.20;;;;;;;;;;5151547;27;20446;-58
2023/07/29 11:21:10;;;;;;;1.67;0.93;;;;;;;;;;5151951;27;20205;-58
2023/07/29 11:23:37;;;;;;;1.17;1.08;;;;;;;;;;5149419;27;20540;-57
2023/07/29 11:26:05;;;;;;;1.10;1.10;;;;;;;;;;5148484;27;20206;-58
2023/07/29 11:28:31;;;;;;;1.42;1.33;;;;;;;;;;5149600;27;20275;-58
2023/07/29 11:30:58;;;;;;;1.35;1.20;;;;;;;;;;5151893;27;20221;-58
2023/07/29 11:33:25;;;;;;;2.70;1.20;;;;;;;;;;5151535;27;20205;-59
2023/07/29 11:35:51;;;;;;;1.40;1.05;;;;;;;;;;5148256;27;20212;-57
2023/07/29 11:38:19;;;;;;;1.52;1.23;;;;;;;;;;5148516;27;20213;-58
2023/07/29 11:40:54;;;;;;;1.13;1.05;;;;;;;;;;5151204;27;20270;-58
2023/07/29 11:43:21;;;;;;;1.05;1.05;;;;;;;;;;5151520;27;20527;-58
2023/07/29 11:45:48;;;;;;;1.75;1.08;;;;;;;;;;5148179;27;20205;-58
2023/07/29 11:48:14;;;;;;;1.40;1.10;;;;;;;;;;5148505;27;20206;-58
2023/07/29 11:50:40;;;;;;;1.58;1.30;;;;;;;;;;5150596;27;20221;-58
2023/07/29 11:53:07;;;;;;;1.35;1.30;;;;;;;;;;5147789;27;20256;-58
2023/07/29 11:55:34;;;;;;;1.30;1.20;;;;;;;;;;5149169;27;20225;-58
2023/07/29 11:58:02;;;;;;;1.77;1.30;;;;;;;;;;5151163;27;20228;-58
2023/07/29 12:00:29;;;;;;;1.40;1.13;;;;;;;;;;5150542;27;20205;-58
2023/07/29 12:03:04;;;;;;;3.33;1.30;;;;;;;;;;5094978;28;20560;-58
2023/07/29 12:05:30;;;;;;;1.83;1.55;;;;;;;;;;5094623;28;20228;-59
2023/07/29 12:07:56;;;;;;;1.33;1.33;;;;;;;;;;5094506;28;20211;-59
2023/07/29 12:10:23;;;;;;;2.50;1.30;;;;;;;;;;5094681;28;20217;-59
2023/07/29 12:12:50;;;;;;;1.40;1.40;;;;;;;;;;5094263;28;20207;-59
2023/07/29 12:15:23;;;;;;;1.30;1.30;;;;;;;;;;5094413;28;20218;-59
2023/07/29 12:17:49;;;;;;;1.40;1.40;;;;;;;;;;5099428;28;20225;-60
2023/07/29 12:20:20;;;;;;;1.63;1.60;;;;;;;;;;5099851;28;20207;-59
2023/07/29 12:22:52;;;;;;;1.27;1.27;;;;;;;;;;5099675;28;20217;-64
2023/07/29 12:25:18;;;;;;;1.10;1.10;;;;;;;;;;5099473;28;20538;-64
2023/07/29 12:27:57;;;;;;;1.55;1.55;;;;;;;;;;5090502;28;20220;-64
2023/07/29 12:30:25;;;;;;;1.35;1.35;;;;;;;;;;5078681;28;20195;-64
2023/07/29 12:32:52;;;;;;;1.42;1.40;;;;;;;;;;5078567;28;20220;-64
2023/07/29 12:35:19;;;;;;;1.85;1.40;;;;;;;;;;5079101;28;20507;-64
2023/07/29 12:37:46;;;;;;;2.38;1.38;;;;;;;;;;5078903;28;20204;-64
2023/07/29 12:40:22;;;;;;;2.92;1.38;;;;;;;;;;5078936;28;20200;-63
2023/07/29 12:42:48;;;;;;;2.55;1.38;;;;;;;;;;5078787;28;20253;-63
2023/07/29 12:45:16;;;;;;;1.52;1.52;;;;;;;;;;5078811;28;20200;-63
2023/07/29 12:47:42;;;;;;;1.52;1.20;;;;;;;;;;5078802;28;20455;-63
2023/07/29 12:50:08;;;;;;;1.45;1.45;;;;;;;;;;5078806;28;20200;-63
2023/07/29 12:52:36;;;;;;;1.55;1.55;;;;;;;;;;5078288;28;20374;-63
2023/07/29 12:55:02;;;;;;;1.25;1.25;;;;;;;;;;5078569;28;20378;-63
2023/07/29 12:57:29;;;;;;;1.17;1.17;;;;;;;;;;5078140;28;20200;-63
2023/07/29 12:59:55;;;;;;;1.27;1.27;;;;;;;;;;5078589;28;20207;-63
2023/07/29 13:02:21;;;;;;;1.40;1.30;;;;;;;;;;5078057;28;20220;-63
2023/07/29 13:04:48;;;;;;;1.40;1.40;;;;;;;;;;5078576;28;20416;-63
2023/07/29 13:07:14;;;;;;;1.30;1.20;;;;;;;;;;5078740;28;20200;-63
2023/07/29 13:09:41;;;;;;;1.95;1.27;;;;;;;;;;5078329;28;20204;-63
2023/07/29 13:12:08;;;;;;;1.20;1.20;;;;;;;;;;5077688;28;20203;-63
2023/07/29 13:14:34;;;;;;;1.80;1.40;;;;;;;;;;5064374;28;20207;-63
2023/07/29 13:17:00;;;;;;;1.50;1.40;;;;;;;;;;5064837;28;20398;-63
2023/07/29 13:19:26;;;;;;;1.30;1.20;;;;;;;;;;5064910;28;20200;-63
2023/07/29 13:21:53;;;;;;;4.57;1.52;;;;;;;;;;5064589;28;20283;-63
2023/07/29 13:24:19;;;;;;;1.52;1.52;;;;;;;;;;5064527;28;20209;-63
2023/07/29 13:26:47;;;;;;;1.30;1.30;;;;;;;;;;5064740;28;20207;-63
2023/07/29 13:29:13;;;;;;;1.30;1.30;;;;;;;;;;5064766;28;20422;-64
2023/07/29 13:31:39;;;;;;;1.90;1.80;;;;;;;;;;5064581;28;20244;-64
2023/07/29 13:34:05;;;;;;;2.42;2.13;;;;;;;;;;5064996;28;20207;-63
2023/07/29 13:36:32;;;;;;;3.72;3.50;;;;;;;;;;5064668;28;20207;-63
2023/07/29 13:38:58;;;;;;;3.13;3.03;;;;;;;;;;5064366;28;20208;-63
2023/07/29 13:41:24;;;;;;;2.38;2.28;;;;;;;;;;5064311;28;20231;-63
2023/07/29 13:43:52;;;;;;;1.90;1.70;;;;;;;;;;5063984;28;20203;-63
2023/07/29 13:46:21;;;;;;;2.15;1.92;;;;;;;;;;5064276;28;20533;-63
2023/07/29 13:48:47;;;;;;;3.33;3.03;;;;;;;;;;5064140;28;20501;-64
2023/07/29 13:51:13;;;;;;;7.28;4.15;;;;;;;;;;5064119;28;20231;-64
2023/07/29 13:53:39;;;;;;;2.42;2.22;;;;;;;;;;5063778;28;20201;-64
2023/07/29 13:56:06;;;;;;;1.58;1.50;;;;;;;;;;5064329;28;20208;-64
2023/07/29 13:58:32;;;;;;;3.80;1.40;;;;;;;;;;5064120;28;20212;-64
2023/07/29 14:01:00;;;;;;;1.63;1.60;;;;;;;;;;5063649;28;20205;-63
2023/07/29 14:03:26;;;;;;;1.98;1.88;;;;;;;;;;5063892;28;20228;-63
2023/07/29 14:05:52;;;;;;;1.67;1.30;;;;;;;;;;5063845;28;20267;-63
2023/07/29 14:08:18;;;;;;;1.42;1.42;;;;;;;;;;5063772;28;20212;-63
2023/07/29 14:10:45;;;;;;;1.05;1.05;;;;;;;;;;5063706;28;20200;-63
2023/07/29 14:13:11;;;;;;;1.23;1.23;;;;;;;;;;5063513;28;20197;-63
2023/07/29 14:15:37;;;;;;;5.97;1.48;;;;;;;;;;5063685;28;20200;-63
2023/07/29 14:18:06;;;;;;;2.47;1.27;;;;;;;;;;5063967;28;20200;-63
2023/07/29 14:20:32;;;;;;;1.50;1.40;;;;;;;;;;5063749;28;20268;-64
2023/07/29 14:22:58;;;;;;;1.55;1.45;;;;;;;;;;5063516;28;20424;-64
2023/07/29 14:25:25;;;;;;;3.08;1.40;;;;;;;;;;5062698;28;20219;-64
2023/07/29 14:27:51;;;;;;;1.45;1.45;;;;;;;;;;5063464;28;20216;-64
2023/07/29 14:30:18;;;;;;;3.65;1.45;;;;;;;;;;5063595;28;20201;-64
2023/07/29 14:32:44;;;;;;;1.02;1.02;;;;;;;;;;5063426;28;20500;-64
2023/07/29 14:35:12;;;;;;;1.45;1.40;;;;;;;;;;5063793;28;20203;-64
2023/07/29 14:37:38;;;;;;;3.97;1.40;;;;;;;;;;5063469;28;20197;-64
2023/07/29 14:40:05;;;;;;;1.58;1.48;;;;;;;;;;5063673;28;20295;-64
2023/07/29 14:42:31;;;;;;;1.33;1.30;;;;;;;;;;5063331;28;20216;-64
2023/07/29 14:44:58;;;;;;;2.05;1.30;;;;;;;;;;5063210;28;20201;-64
2023/07/29 14:47:24;;;;;;;1.50;1.50;;;;;;;;;;5063149;28;20196;-64
2023/07/29 14:49:50;;;;;;;2.03;1.52;;;;;;;;;;5063001;28;20560;-64
2023/07/29 14:52:18;;;;;;;2.58;1.23;;;;;;;;;;5063269;28;20200;-64